sensor_id;sensor_type;location;lat;lon;timestamp;pressure;altitude;pressure_sealevel;temperature;humidity
5703;BME280;2876;51.738;10.050;2022-07-24T00:03:30;99791.13;;;15.58;79.63
5703;BME280;2876;51.738;10.050;2022-07-24T00:09:33;99772.13;;;15.39;80.11
5703;BME280;2876;51.738;10.050;2022-07-24T00:15:35;99776.66;;;15.20;80.90
5703;BME280;2876;51.738;10.050;2022-07-24T00:21:37;99775.56;;;15.28;80.45
5703;BME280;2876;51.738;10.050;2022-07-24T00:27:39;99776.88;;;15.19;81.13
5703;BME280;2876;51.738;10.050;2022-07-24T00:33:42;99761.81;;;15.05;81.81
5703;BME280;2876;51.738;10.050;2022-07-24T00:39:44;99768.22;;;15.10;82.01
5703;BME280;2876;51.738;10.050;2022-07-24T00:45:47;99770.47;;;15.13;82.11
5703;BME280;2876;51.738;10.050;2022-07-24T00:51:51;99765.41;;;14.92;82.25
5703;BME280;2876;51.738;10.050;2022-07-24T00:57:54;99764.81;;;14.90;82.82
5703;BME280;2876;51.738;10.050;2022-07-24T01:03:57;99762.59;;;14.74;84.24
5703;BME280;2876;51.738;10.050;2022-07-24T01:09:59;99772.16;;;14.76;83.78
5703;BME280;2876;51.738;10.050;2022-07-24T01:16:02;99762.84;;;14.65;83.83
5703;BME280;2876;51.738;10.050;2022-07-24T01:22:04;99769.66;;;14.75;83.33
5703;BME280;2876;51.738;10.050;2022-07-24T01:28:06;99763.72;;;14.53;83.60
5703;BME280;2876;51.738;10.050;2022-07-24T01:34:09;99750.66;;;14.43;83.44
5703;BME280;2876;51.738;10.050;2022-07-24T01:40:11;99757.53;;;14.39;83.90
5703;BME280;2876;51.738;10.050;2022-07-24T01:46:13;99767.31;;;14.40;83.35
5703;BME280;2876;51.738;10.050;2022-07-24T01:52:15;99761.97;;;14.20;84.42
5703;BME280;2876;51.738;10.050;2022-07-24T01:58:18;99746.03;;;13.99;85.57
5703;BME280;2876;51.738;10.050;2022-07-24T02:04:23;99751.03;;;14.02;85.99
5703;BME280;2876;51.738;10.050;2022-07-24T02:10:27;99756.81;;;13.99;85.86
5703;BME280;2876;51.738;10.050;2022-07-24T02:16:29;99768.91;;;13.76;87.39
5703;BME280;2876;51.738;10.050;2022-07-24T02:22:31;99762.06;;;13.74;87.75
5703;BME280;2876;51.738;10.050;2022-07-24T02:28:35;99752.31;;;13.79;87.28
5703;BME280;2876;51.738;10.050;2022-07-24T02:34:37;99758.53;;;13.80;87.17
5703;BME280;2876;51.738;10.050;2022-07-24T02:40:39;99756.28;;;13.57;88.65
5703;BME280;2876;51.738;10.050;2022-07-24T02:46:41;99764.56;;;13.62;88.70
5703;BME280;2876;51.738;10.050;2022-07-24T02:52:44;99755.84;;;13.53;89.40
5703;BME280;2876;51.738;10.050;2022-07-24T02:58:46;99769.13;;;13.48;89.68
5703;BME280;2876;51.738;10.050;2022-07-24T03:04:48;99775.53;;;13.80;88.71
5703;BME280;2876;51.738;10.050;2022-07-24T03:10:51;99780.53;;;13.57;88.95
5703;BME280;2876;51.738;10.050;2022-07-24T03:16:53;99787.34;;;13.39;88.50
5703;BME280;2876;51.738;10.050;2022-07-24T03:22:56;99765.59;;;13.28;88.24
5703;BME280;2876;51.738;10.050;2022-07-24T03:28:58;99765.34;;;13.16;89.18
5703;BME280;2876;51.738;10.050;2022-07-24T03:35:00;99777.63;;;13.25;89.85
5703;BME280;2876;51.738;10.050;2022-07-24T03:41:02;99774.53;;;13.28;89.61
5703;BME280;2876;51.738;10.050;2022-07-24T03:47:04;99786.28;;;13.20;89.94
5703;BME280;2876;51.738;10.050;2022-07-24T03:53:07;99785.66;;;13.18;90.24
5703;BME280;2876;51.738;10.050;2022-07-24T03:59:11;99782.38;;;13.30;90.82
5703;BME280;2876;51.738;10.050;2022-07-24T04:05:13;99813.47;;;13.39;89.71
5703;BME280;2876;51.738;10.050;2022-07-24T04:11:15;99802.31;;;13.42;88.05
5703;BME280;2876;51.738;10.050;2022-07-24T04:17:17;99798.97;;;13.33;88.68
5703;BME280;2876;51.738;10.050;2022-07-24T04:23:19;99786.94;;;13.29;89.22
5703;BME280;2876;51.738;10.050;2022-07-24T04:29:23;99788.19;;;13.80;91.08
5703;BME280;2876;51.738;10.050;2022-07-24T04:35:25;99784.25;;;13.76;91.02
5703;BME280;2876;51.738;10.050;2022-07-24T04:41:27;99781.28;;;14.10;91.67
5703;BME280;2876;51.738;10.050;2022-07-24T04:47:31;99775.81;;;14.37;89.67
5703;BME280;2876;51.738;10.050;2022-07-24T04:53:33;99779.56;;;14.49;88.24
5703;BME280;2876;51.738;10.050;2022-07-24T04:59:36;99798.34;;;14.69;87.14
5703;BME280;2876;51.738;10.050;2022-07-24T05:05:38;99793.22;;;15.31;83.99
5703;BME280;2876;51.738;10.050;2022-07-24T05:11:40;99785.31;;;15.29;86.59
5703;BME280;2876;51.738;10.050;2022-07-24T05:17:42;99783.25;;;15.56;86.87
5703;BME280;2876;51.738;10.050;2022-07-24T05:23:44;99782.59;;;15.86;84.90
5703;BME280;2876;51.738;10.050;2022-07-24T05:29:46;99775.34;;;16.05;82.93
5703;BME280;2876;51.738;10.050;2022-07-24T05:35:48;99775.41;;;16.35;82.30
5703;BME280;2876;51.738;10.050;2022-07-24T05:41:50;99777.44;;;16.76;80.01
5703;BME280;2876;51.738;10.050;2022-07-24T05:47:52;99774.19;;;16.86;79.43
5703;BME280;2876;51.738;10.050;2022-07-24T05:53:54;99774.72;;;17.06;76.81
5703;BME280;2876;51.738;10.050;2022-07-24T05:59:56;99777.41;;;17.36;77.33
5703;BME280;2876;51.738;10.050;2022-07-24T06:05:58;99778.78;;;17.81;74.78
5703;BME280;2876;51.738;10.050;2022-07-24T06:12:00;99780.13;;;18.30;74.64
5703;BME280;2876;51.738;10.050;2022-07-24T06:18:02;99771.28;;;18.87;71.57
5703;BME280;2876;51.738;10.050;2022-07-24T06:24:05;99766.06;;;19.14;71.83
5703;BME280;2876;51.738;10.050;2022-07-24T06:30:14;99763.97;;;19.66;69.81
5703;BME280;2876;51.738;10.050;2022-07-24T06:36:17;99767.97;;;19.97;66.81
5703;BME280;2876;51.738;10.050;2022-07-24T06:42:19;99761.06;;;20.28;65.01
5703;BME280;2876;51.738;10.050;2022-07-24T06:48:21;99749.31;;;20.94;63.22
5703;BME280;2876;51.738;10.050;2022-07-24T06:54:24;99753.44;;;21.28;63.45
5703;BME280;2876;51.738;10.050;2022-07-24T07:00:26;99744.84;;;21.74;61.67
5703;BME280;2876;51.738;10.050;2022-07-24T07:06:28;99754.75;;;22.33;59.48
5703;BME280;2876;51.738;10.050;2022-07-24T07:12:30;99758.44;;;22.64;59.09
5703;BME280;2876;51.738;10.050;2022-07-24T07:18:38;99761.91;;;23.17;56.29
5703;BME280;2876;51.738;10.050;2022-07-24T07:24:41;99747.66;;;23.25;54.99
5703;BME280;2876;51.738;10.050;2022-07-24T07:30:47;99747.13;;;23.74;54.29
5703;BME280;2876;51.738;10.050;2022-07-24T07:36:49;99740.25;;;23.87;53.62
5703;BME280;2876;51.738;10.050;2022-07-24T07:42:51;99742.38;;;24.15;53.46
5703;BME280;2876;51.738;10.050;2022-07-24T07:48:54;99730.94;;;24.68;52.51
5703;BME280;2876;51.738;10.050;2022-07-24T07:54:56;99737.97;;;24.84;50.61
5703;BME280;2876;51.738;10.050;2022-07-24T08:00:58;99742.19;;;25.16;50.33
5703;BME280;2876;51.738;10.050;2022-07-24T08:07:00;99748.00;;;25.77;49.34
5703;BME280;2876;51.738;10.050;2022-07-24T08:13:02;99737.75;;;26.12;47.11
5703;BME280;2876;51.738;10.050;2022-07-24T08:19:04;99729.28;;;26.75;47.24
5703;BME280;2876;51.738;10.050;2022-07-24T08:25:08;99737.94;;;27.25;45.81
5703;BME280;2876;51.738;10.050;2022-07-24T08:31:10;99735.47;;;27.24;44.93
5703;BME280;2876;51.738;10.050;2022-07-24T08:37:12;99741.06;;;27.51;44.64
5703;BME280;2876;51.738;10.050;2022-07-24T08:43:14;99736.69;;;27.50;43.91
5703;BME280;2876;51.738;10.050;2022-07-24T08:49:16;99725.66;;;27.18;44.14
5703;BME280;2876;51.738;10.050;2022-07-24T08:55:21;99719.56;;;27.67;43.71
5703;BME280;2876;51.738;10.050;2022-07-24T09:01:23;99721.25;;;27.82;43.06
5703;BME280;2876;51.738;10.050;2022-07-24T09:07:29;99724.84;;;28.10;42.19
5703;BME280;2876;51.738;10.050;2022-07-24T09:13:34;99718.19;;;27.97;39.97
5703;BME280;2876;51.738;10.050;2022-07-24T09:20:02;99719.63;;;27.81;41.13
5703;BME280;2876;51.738;10.050;2022-07-24T09:26:05;99710.94;;;28.56;39.25
5703;BME280;2876;51.738;10.050;2022-07-24T09:32:07;99704.03;;;28.95;37.96
5703;BME280;2876;51.738;10.050;2022-07-24T09:38:16;99694.75;;;28.77;37.57
5703;BME280;2876;51.738;10.050;2022-07-24T09:44:19;99691.34;;;29.39;36.88
5703;BME280;2876;51.738;10.050;2022-07-24T09:50:21;99687.63;;;29.66;36.20
5703;BME280;2876;51.738;10.050;2022-07-24T09:56:31;99684.41;;;29.50;35.27
5703;BME280;2876;51.738;10.050;2022-07-24T10:02:34;99684.66;;;29.94;35.92
5703;BME280;2876;51.738;10.050;2022-07-24T10:08:42;99680.31;;;31.28;33.66
5703;BME280;2876;51.738;10.050;2022-07-24T10:14:47;99672.31;;;30.57;33.90
5703;BME280;2876;51.738;10.050;2022-07-24T10:20:55;99670.69;;;31.34;33.38
5703;BME280;2876;51.738;10.050;2022-07-24T10:27:04;99665.59;;;31.36;33.05
5703;BME280;2876;51.738;10.050;2022-07-24T10:33:06;99665.59;;;31.92;32.42
5703;BME280;2876;51.738;10.050;2022-07-24T10:39:26;99657.91;;;31.50;30.82
5703;BME280;2876;51.738;10.050;2022-07-24T10:46:19;99649.06;;;32.04;31.47
5703;BME280;2876;51.738;10.050;2022-07-24T10:51:59;99631.25;;;32.55;29.94
5703;BME280;2876;51.738;10.050;2022-07-24T10:58:13;99630.34;;;33.05;30.17
5703;BME280;2876;51.738;10.050;2022-07-24T11:16:52;99615.00;;;34.02;28.40
5703;BME280;2876;51.738;10.050;2022-07-24T11:22:55;99616.97;;;34.95;27.18
5703;BME280;2876;51.738;10.050;2022-07-24T11:35:28;99609.63;;;35.46;26.25
5703;BME280;2876;51.738;10.050;2022-07-24T11:42:04;99604.47;;;35.96;25.92
5703;BME280;2876;51.738;10.050;2022-07-24T11:48:17;99604.38;;;36.08;26.33
5703;BME280;2876;51.738;10.050;2022-07-24T11:54:27;99606.75;;;35.58;25.87
5703;BME280;2876;51.738;10.050;2022-07-24T12:00:29;99590.75;;;36.06;25.72
5703;BME280;2876;51.738;10.050;2022-07-24T12:06:33;99596.22;;;36.19;26.08
5703;BME280;2876;51.738;10.050;2022-07-24T12:12:39;99588.34;;;36.05;26.50
5703;BME280;2876;51.738;10.050;2022-07-24T12:18:41;99579.06;;;36.55;25.25
5703;BME280;2876;51.738;10.050;2022-07-24T12:24:43;99569.69;;;37.29;24.82
5703;BME280;2876;51.738;10.050;2022-07-24T12:30:48;99569.09;;;39.13;23.35
5703;BME280;2876;51.738;10.050;2022-07-24T12:36:51;99559.91;;;40.12;21.75
5703;BME280;2876;51.738;10.050;2022-07-24T12:43:06;99555.16;;;39.68;22.50
5703;BME280;2876;51.738;10.050;2022-07-24T12:55:21;99534.31;;;38.83;23.14
5703;BME280;2876;51.738;10.050;2022-07-24T13:01:27;99521.44;;;37.36;23.97
5703;BME280;2876;51.738;10.050;2022-07-24T13:07:29;99508.66;;;37.12;23.98
5703;BME280;2876;51.738;10.050;2022-07-24T13:13:32;99508.66;;;38.18;22.64
5703;BME280;2876;51.738;10.050;2022-07-24T13:19:34;99516.13;;;39.55;21.44
5703;BME280;2876;51.738;10.050;2022-07-24T13:25:36;99511.19;;;39.93;21.27
5703;BME280;2876;51.738;10.050;2022-07-24T13:31:40;99490.69;;;41.16;20.50
5703;BME280;2876;51.738;10.050;2022-07-24T13:37:42;99495.72;;;42.28;19.95
5703;BME280;2876;51.738;10.050;2022-07-24T13:43:53;99490.09;;;42.94;19.48
5703;BME280;2876;51.738;10.050;2022-07-24T13:49:55;99473.75;;;40.91;19.95
5703;BME280;2876;51.738;10.050;2022-07-24T13:55:57;99457.22;;;40.64;20.63
5703;BME280;2876;51.738;10.050;2022-07-24T14:01:59;99450.66;;;40.24;20.90
5703;BME280;2876;51.738;10.050;2022-07-24T14:08:02;99444.03;;;41.04;20.52
5703;BME280;2876;51.738;10.050;2022-07-24T14:14:04;99434.25;;;40.37;20.91
5703;BME280;2876;51.738;10.050;2022-07-24T14:20:10;99441.09;;;40.43;20.44
5703;BME280;2876;51.738;10.050;2022-07-24T14:26:12;99438.94;;;39.31;21.18
5703;BME280;2876;51.738;10.050;2022-07-24T14:32:14;99433.97;;;41.03;20.45
5703;BME280;2876;51.738;10.050;2022-07-24T14:38:16;99424.28;;;40.58;21.59
5703;BME280;2876;51.738;10.050;2022-07-24T14:44:18;99406.59;;;39.59;20.80
5703;BME280;2876;51.738;10.050;2022-07-24T14:50:20;99412.94;;;40.25;21.55
5703;BME280;2876;51.738;10.050;2022-07-24T14:56:27;99389.63;;;40.32;21.60
5703;BME280;2876;51.738;10.050;2022-07-24T15:02:30;99381.81;;;39.79;20.83
5703;BME280;2876;51.738;10.050;2022-07-24T15:08:32;99375.50;;;39.23;21.68
5703;BME280;2876;51.738;10.050;2022-07-24T15:14:34;99365.88;;;39.24;22.33
5703;BME280;2876;51.738;10.050;2022-07-24T15:20:36;99368.78;;;38.80;22.50
5703;BME280;2876;51.738;10.050;2022-07-24T15:26:38;99361.09;;;37.65;23.61
5703;BME280;2876;51.738;10.050;2022-07-24T15:32:41;99353.31;;;38.60;22.02
5703;BME280;2876;51.738;10.050;2022-07-24T15:38:43;99348.69;;;38.33;22.93
5703;BME280;2876;51.738;10.050;2022-07-24T15:44:45;99338.22;;;38.71;22.65
5703;BME280;2876;51.738;10.050;2022-07-24T15:50:47;99332.66;;;39.37;22.63
5703;BME280;2876;51.738;10.050;2022-07-24T15:56:49;99322.16;;;40.36;21.00
5703;BME280;2876;51.738;10.050;2022-07-24T16:02:51;99329.78;;;40.78;20.37
5703;BME280;2876;51.738;10.050;2022-07-24T16:08:53;99326.69;;;39.49;21.03
5703;BME280;2876;51.738;10.050;2022-07-24T16:14:55;99316.47;;;40.07;21.16
5703;BME280;2876;51.738;10.050;2022-07-24T16:20:57;99299.97;;;41.20;20.42
5703;BME280;2876;51.738;10.050;2022-07-24T16:26:59;99291.75;;;39.40;20.76
5703;BME280;2876;51.738;10.050;2022-07-24T16:33:01;99302.00;;;38.55;21.80
5703;BME280;2876;51.738;10.050;2022-07-24T16:39:23;99289.47;;;38.90;22.02
5703;BME280;2876;51.738;10.050;2022-07-24T16:45:43;99283.13;;;41.09;20.38
5703;BME280;2876;51.738;10.050;2022-07-24T16:51:45;99282.75;;;41.95;18.62
5703;BME280;2876;51.738;10.050;2022-07-24T16:57:47;99275.28;;;41.60;18.96
5703;BME280;2876;51.738;10.050;2022-07-24T17:03:49;99267.69;;;43.09;18.39
5703;BME280;2876;51.738;10.050;2022-07-24T17:09:51;99273.66;;;44.34;17.34
5703;BME280;2876;51.738;10.050;2022-07-24T17:15:53;99270.91;;;42.21;18.53
5703;BME280;2876;51.738;10.050;2022-07-24T17:22:16;99270.59;;;43.33;18.95
5703;BME280;2876;51.738;10.050;2022-07-24T17:28:19;99267.09;;;43.86;17.86
5703;BME280;2876;51.738;10.050;2022-07-24T17:34:21;99277.28;;;43.80;18.24
5703;BME280;2876;51.738;10.050;2022-07-24T17:40:24;99267.28;;;43.41;19.63
5703;BME280;2876;51.738;10.050;2022-07-24T17:46:26;99269.88;;;43.59;19.57
5703;BME280;2876;51.738;10.050;2022-07-24T17:52:28;99267.94;;;43.83;19.17
5703;BME280;2876;51.738;10.050;2022-07-24T17:58:30;99264.00;;;44.04;18.86
5703;BME280;2876;51.738;10.050;2022-07-24T18:04:32;99248.31;;;43.11;19.33
5703;BME280;2876;51.738;10.050;2022-07-24T18:10:35;99245.03;;;42.34;20.21
5703;BME280;2876;51.738;10.050;2022-07-24T18:16:37;99239.59;;;41.39;21.44
5703;BME280;2876;51.738;10.050;2022-07-24T18:22:40;99239.34;;;40.79;21.82
5703;BME280;2876;51.738;10.050;2022-07-24T18:28:42;99233.13;;;39.24;24.33
5703;BME280;2876;51.738;10.050;2022-07-24T18:34:44;99224.13;;;36.89;27.07
5703;BME280;2876;51.738;10.050;2022-07-24T18:40:47;99223.25;;;34.54;29.26
5703;BME280;2876;51.738;10.050;2022-07-24T18:46:49;99212.47;;;32.40;31.77
5703;BME280;2876;51.738;10.050;2022-07-24T18:52:51;99210.41;;;30.71;35.10
5703;BME280;2876;51.738;10.050;2022-07-24T18:58:53;99209.22;;;29.40;37.36
5703;BME280;2876;51.738;10.050;2022-07-24T19:04:55;99210.31;;;28.52;38.79
5703;BME280;2876;51.738;10.050;2022-07-24T19:10:57;99204.34;;;27.88;39.82
5703;BME280;2876;51.738;10.050;2022-07-24T19:17:00;99207.59;;;27.37;41.37
5703;BME280;2876;51.738;10.050;2022-07-24T19:23:02;99213.97;;;26.87;42.65
5703;BME280;2876;51.738;10.050;2022-07-24T19:29:04;99209.59;;;26.50;43.93
5703;BME280;2876;51.738;10.050;2022-07-24T19:35:07;99220.69;;;26.03;45.50
5703;BME280;2876;51.738;10.050;2022-07-24T19:41:09;99217.00;;;25.94;45.13
5703;BME280;2876;51.738;10.050;2022-07-24T19:47:11;99219.09;;;25.84;45.25
5703;BME280;2876;51.738;10.050;2022-07-24T19:53:13;99215.09;;;25.62;46.16
5703;BME280;2876;51.738;10.050;2022-07-24T19:59:15;99220.53;;;25.48;46.35
5703;BME280;2876;51.738;10.050;2022-07-24T20:05:17;99227.47;;;25.27;47.50
5703;BME280;2876;51.738;10.050;2022-07-24T20:11:19;99220.44;;;25.21;47.12
5703;BME280;2876;51.738;10.050;2022-07-24T20:17:21;99216.94;;;25.15;47.25
5703;BME280;2876;51.738;10.050;2022-07-24T20:23:24;99222.25;;;25.06;48.08
5703;BME280;2876;51.738;10.050;2022-07-24T20:29:26;99225.50;;;25.14;46.33
5703;BME280;2876;51.738;10.050;2022-07-24T20:35:28;99230.78;;;24.67;47.28
5703;BME280;2876;51.738;10.050;2022-07-24T20:41:30;99227.50;;;24.65;47.66
5703;BME280;2876;51.738;10.050;2022-07-24T20:47:32;99228.59;;;24.45;48.29
5703;BME280;2876;51.738;10.050;2022-07-24T20:53:34;99219.50;;;24.26;48.78
5703;BME280;2876;51.738;10.050;2022-07-24T20:59:37;99227.31;;;24.14;48.79
5703;BME280;2876;51.738;10.050;2022-07-24T21:05:39;99234.41;;;24.15;49.11
5703;BME280;2876;51.738;10.050;2022-07-24T21:11:41;99228.44;;;23.84;50.31
5703;BME280;2876;51.738;10.050;2022-07-24T21:17:44;99230.44;;;23.44;51.64
5703;BME280;2876;51.738;10.050;2022-07-24T21:23:46;99226.69;;;23.64;52.02
5703;BME280;2876;51.738;10.050;2022-07-24T21:29:48;99224.97;;;24.02;49.66
5703;BME280;2876;51.738;10.050;2022-07-24T21:35:50;99222.88;;;23.94;51.31
5703;BME280;2876;51.738;10.050;2022-07-24T21:48:02;99221.75;;;23.95;49.96
5703;BME280;2876;51.738;10.050;2022-07-24T21:54:04;99218.84;;;24.10;49.23
5703;BME280;2876;51.738;10.050;2022-07-24T22:00:09;99200.88;;;24.23;49.46
5703;BME280;2876;51.738;10.050;2022-07-24T22:06:12;99210.47;;;24.25;49.27
5703;BME280;2876;51.738;10.050;2022-07-24T22:12:14;99207.19;;;23.99;49.32
5703;BME280;2876;51.738;10.050;2022-07-24T22:18:17;99194.88;;;23.97;49.09
5703;BME280;2876;51.738;10.050;2022-07-24T22:24:19;99201.47;;;23.96;49.70
5703;BME280;2876;51.738;10.050;2022-07-24T22:30:21;99192.44;;;23.95;49.07
5703;BME280;2876;51.738;10.050;2022-07-24T22:36:33;99179.78;;;23.75;49.96
5703;BME280;2876;51.738;10.050;2022-07-24T22:42:37;99178.03;;;23.85;49.11
5703;BME280;2876;51.738;10.050;2022-07-24T22:54:51;99173.91;;;23.58;49.93
5703;BME280;2876;51.738;10.050;2022-07-24T23:00:53;99160.00;;;23.49;49.90
5703;BME280;2876;51.738;10.050;2022-07-24T23:06:56;99161.75;;;23.40;50.59
5703;BME280;2876;51.738;10.050;2022-07-24T23:12:58;99158.63;;;23.23;50.44
5703;BME280;2876;51.738;10.050;2022-07-24T23:19:08;99154.00;;;23.18;50.29
5703;BME280;2876;51.738;10.050;2022-07-24T23:25:12;99145.63;;;23.04;50.57
5703;BME280;2876;51.738;10.050;2022-07-24T23:31:14;99144.06;;;22.93;51.04
5703;BME280;2876;51.738;10.050;2022-07-24T23:37:16;99134.53;;;22.86;51.55
5703;BME280;2876;51.738;10.050;2022-07-24T23:43:18;99126.72;;;22.69;52.45
5703;BME280;2876;51.738;10.050;2022-07-24T23:49:20;99115.84;;;22.59;51.84
5703;BME280;2876;51.738;10.050;2022-07-24T23:55:22;99110.38;;;22.59;51.78
